Timmins/Victor M. Power
CYTS : now visible

Airfield :











YOU CAN JOIN US ON...

 
LOGIN :

Register | Disclaimer

   EN    FR    IT 

 









Legend :    VFR   Marginal VFR   IFR   Intensive IFR   Very Intensive IFR
Visi :
Ceiling :
>= 8 km
>= 3000ft
5 to 8 km
1000 to 3000 ft
1500m to 5 km
500 to 1000 ft
800 to 1500m
200 to 500 ft
< 800m
< 200 ft
Symbols :   Thunderstorms  Fog  Heavy snow  Heavy precipitations  Wind > 20 kt






- Airport Elevation : 967 ft
- IATA code : YTS


CYTS - Timmins/Victor M. Power

CURRENT METAR :
  • 080700Z 19017G24KT 170V230 3SM -SN DRSN FEW009 OVC012 M02/M03 A2979 RMK SF1SC7 SLP107

EXPIRED METARs :
  • 080623Z 19014G24KT 5SM -SN DRSN FEW009 OVC014 M02/M04 A2982 RMK SF2SC6 SLP119
  • 080600Z 19013G23KT 5SM -SN DRSN FEW010 OVC016 M03/M04 A2984 RMK SF2SC6 PRESFR SLP123
  • 080552Z 19013G20KT 8SM -SN DRSN FEW010 BKN017 OVC100 M03/M04 A2985 RMK SF1SC6AC1 PRESFR SLP127
  • 080500Z 19016G22KT 15SM BKN018 OVC100 M03/M05 A2989 RMK SC6AC2 SLP142

TAF AMD TAF CYTS
Valid from the 08 at 05:00 until the 08 at 14:00 UTC


080503Z 0805/0814 19015G25KT P6SM -SN SCT015 OVC025
TEMPO 0805/0807 2SM -SN OVC012
FM080700 19018G28KT 1SM -SN BLSN OVC007
TEMPO 0807/0814 3SM -SN OVC020 RMK NXT FCST BY 080800Z



MET'MAP, your aeronautical weather chart ! - Copyright ORBIFLY December 2007 - Disclaimer

ORBIFLY MET'MAP TEAM :

Programming & Development : Alexandra Zaïnal
Concept & original design : Baudouin d'Aumeries
Assistance for programming : Marc-Olivier Méhu
Technical & hardware support : Manuel Goepfert

Contact : metmap@orbifly.com




SOURCES & CREDITS :

   NOAA       Earth
Advisory